createdAt,value
2023-01-21T00:01:23.560Z,21.83
2023-01-21T00:03:58.748Z,22.90
2023-01-21T00:06:31.627Z,22.08
2023-01-21T00:09:03.815Z,21.55
2023-01-21T00:11:34.264Z,22.45
2023-01-21T00:14:08.221Z,21.70
2023-01-21T00:16:39.464Z,24.65
2023-01-21T00:19:11.210Z,23.75
2023-01-21T00:21:45.519Z,23.60
2023-01-21T00:24:19.146Z,24.27
2023-01-21T00:26:55.323Z,23.00
2023-01-21T00:29:25.289Z,22.30
2023-01-21T00:32:06.648Z,20.88
2023-01-21T00:34:51.556Z,21.90
2023-01-21T00:37:27.286Z,21.65
2023-01-21T00:40:00.841Z,21.05
2023-01-21T00:42:32.739Z,20.48
2023-01-21T00:45:01.620Z,22.27
2023-01-21T00:47:32.880Z,20.25
2023-01-21T00:50:09.378Z,20.77
2023-01-21T00:52:42.666Z,21.63
2023-01-21T00:55:18.233Z,22.50
2023-01-21T00:57:49.221Z,22.10
2023-01-21T01:00:23.088Z,22.52
2023-01-21T01:02:56.578Z,21.90
2023-01-21T01:05:32.934Z,22.10
2023-01-21T01:08:05.732Z,16.05
2023-01-21T01:10:37.735Z,22.73
2023-01-21T01:13:10.275Z,22.65
2023-01-21T01:15:41.281Z,22.08
2023-01-21T01:18:10.947Z,21.40
2023-01-21T01:20:43.270Z,23.15
2023-01-21T01:23:13.188Z,22.08
2023-01-21T01:25:47.777Z,24.05
2023-01-21T01:28:18.914Z,22.90
2023-01-21T01:30:54.481Z,23.20
2023-01-21T01:33:29.036Z,24.02
2023-01-21T01:36:08.504Z,23.50
2023-01-21T01:38:38.568Z,23.58
2023-01-21T01:41:15.885Z,23.73
2023-01-21T01:43:52.886Z,23.67
2023-01-21T01:46:27.961Z,23.40
2023-01-21T01:49:17.785Z,22.90
2023-01-21T01:52:04.213Z,23.00
2023-01-21T01:54:44.136Z,23.55
2023-01-21T01:57:19.486Z,23.48
2023-01-21T01:59:50.841Z,21.95
2023-01-21T02:02:24.054Z,21.80
2023-01-21T02:04:59.401Z,22.20
2023-01-21T02:07:33.131Z,22.17
2023-01-21T02:10:05.979Z,22.85
2023-01-21T02:12:39.371Z,23.10
2023-01-21T02:15:10.344Z,24.38
2023-01-21T02:18:08.311Z,22.00
2023-01-21T02:21:07.566Z,23.27
2023-01-21T02:24:12.802Z,23.25
2023-01-21T02:27:09.399Z,25.30
2023-01-21T02:30:08.713Z,22.67
2023-01-21T02:33:10.091Z,22.98
2023-01-21T02:36:12.158Z,23.17
2023-01-21T02:39:14.362Z,22.48
2023-01-21T02:42:24.508Z,22.75
2023-01-21T02:45:27.295Z,23.30
2023-01-21T02:48:09.937Z,23.00
2023-01-21T02:50:53.820Z,23.27
2023-01-21T02:53:33.566Z,23.35
2023-01-21T02:56:12.525Z,23.38
2023-01-21T02:58:49.154Z,23.65
2023-01-21T03:02:06.552Z,23.30
2023-01-21T03:05:20.980Z,23.17
2023-01-21T03:08:17.698Z,22.25
2023-01-21T03:11:18.646Z,22.55
2023-01-21T03:14:18.387Z,21.73
2023-01-21T03:17:03.968Z,23.88
2023-01-21T03:19:51.772Z,23.38
2023-01-21T03:22:27.685Z,24.13
2023-01-21T03:25:00.172Z,22.77
2023-01-21T03:27:34.756Z,24.23
2023-01-21T03:30:17.010Z,22.75
2023-01-21T03:32:50.734Z,22.85
2023-01-21T03:35:31.527Z,22.92
2023-01-21T03:38:19.002Z,22.95
2023-01-21T03:41:15.587Z,22.80
2023-01-21T03:43:43.692Z,23.30
2023-01-21T03:46:42.888Z,24.25
2023-01-21T03:50:06.059Z,22.95
2023-01-21T03:52:45.857Z,19.92
2023-01-21T03:55:17.504Z,25.63
2023-01-21T03:57:49.524Z,25.13
2023-01-21T04:00:21.126Z,25.77
2023-01-21T04:02:53.173Z,26.10
2023-01-21T04:05:29.083Z,28.42
2023-01-21T04:08:03.719Z,27.45
2023-01-21T04:10:37.385Z,28.30
2023-01-21T04:13:10.683Z,28.33
2023-01-21T04:15:42.779Z,27.77
2023-01-21T04:18:14.077Z,28.00
2023-01-21T04:20:45.930Z,28.38
2023-01-21T04:23:21.491Z,29.88
2023-01-21T04:25:54.688Z,28.40
2023-01-21T04:28:25.004Z,31.08
2023-01-21T04:30:54.658Z,30.27
2023-01-21T04:33:31.051Z,31.55
2023-01-21T04:36:03.507Z,33.45
2023-01-21T04:38:34.625Z,30.98
2023-01-21T04:41:04.815Z,31.38
2023-01-21T04:43:36.933Z,31.20
2023-01-21T04:46:06.094Z,30.45
2023-01-21T04:48:36.067Z,29.58
2023-01-21T04:51:11.738Z,28.15
2023-01-21T04:53:45.628Z,28.45
2023-01-21T04:56:18.302Z,27.30
2023-01-21T04:58:54.926Z,26.58
2023-01-21T05:01:27.190Z,28.23
2023-01-21T05:03:59.710Z,27.42
2023-01-21T05:06:28.467Z,26.90
2023-01-21T05:09:00.563Z,27.58
2023-01-21T05:11:30.707Z,29.55
2023-01-21T05:13:59.180Z,28.05
2023-01-21T05:16:29.554Z,28.00
2023-01-21T05:19:04.152Z,28.15
2023-01-21T05:21:33.583Z,27.80
2023-01-21T05:24:03.441Z,26.45
2023-01-21T05:26:35.276Z,27.27
2023-01-21T05:29:09.811Z,27.35
2023-01-21T05:31:44.773Z,28.13
2023-01-21T05:34:17.636Z,26.10
2023-01-21T05:36:55.693Z,28.60
2023-01-21T05:39:28.523Z,27.55
2023-01-21T05:42:03.534Z,29.40
2023-01-21T05:44:32.934Z,27.67
2023-01-21T05:47:08.964Z,27.70
2023-01-21T05:49:46.570Z,27.08
2023-01-21T05:52:20.426Z,26.70
2023-01-21T05:55:01.745Z,26.20
2023-01-21T05:57:33.022Z,26.70
2023-01-21T06:00:05.374Z,26.70
2023-01-21T06:02:36.910Z,26.80
2023-01-21T06:05:10.768Z,25.70
2023-01-21T06:07:46.628Z,20.25
2023-01-21T06:10:20.852Z,25.70
2023-01-21T06:12:59.031Z,26.38
2023-01-21T06:15:28.748Z,26.00
2023-01-21T06:18:05.714Z,22.00
2023-01-21T06:20:36.583Z,19.85
2023-01-21T06:23:08.901Z,27.80
2023-01-21T06:25:37.332Z,27.65
2023-01-21T06:28:08.955Z,28.48
2023-01-21T06:30:44.022Z,27.73
2023-01-21T06:33:15.675Z,29.48
2023-01-21T06:35:44.945Z,29.35
2023-01-21T06:38:19.947Z,28.30
2023-01-21T06:40:53.557Z,28.90
2023-01-21T06:43:22.886Z,28.40
2023-01-21T06:45:52.870Z,30.00
2023-01-21T06:48:26.022Z,30.48
2023-01-21T06:50:57.921Z,29.85
2023-01-21T06:53:32.169Z,29.52
2023-01-21T06:56:03.572Z,30.48
2023-01-21T06:58:37.708Z,29.48
2023-01-21T07:01:10.588Z,29.38
2023-01-21T07:03:46.102Z,29.70
2023-01-21T07:06:16.601Z,31.63
2023-01-21T07:08:52.267Z,30.40
2023-01-21T07:11:24.793Z,22.47
2023-01-21T07:13:56.397Z,30.33
2023-01-21T07:16:27.936Z,29.40
2023-01-21T07:19:01.296Z,27.73
2023-01-21T07:21:33.438Z,30.48
2023-01-21T07:24:04.777Z,30.93
2023-01-21T07:26:38.265Z,30.40
2023-01-21T07:29:15.744Z,31.65
2023-01-21T07:32:01.274Z,31.65
2023-01-21T07:34:32.095Z,33.08
2023-01-21T07:37:06.745Z,31.25
2023-01-21T07:42:13.020Z,33.25
2023-01-21T07:44:47.247Z,31.13
2023-01-21T07:47:17.476Z,33.00
2023-01-21T07:49:50.816Z,34.17
2023-01-21T07:52:27.841Z,33.45
2023-01-21T07:55:02.614Z,35.22
2023-01-21T07:57:34.720Z,33.77
2023-01-21T08:00:11.628Z,34.40
2023-01-21T08:02:44.662Z,34.78
2023-01-21T08:05:28.790Z,27.17
2023-01-21T08:08:06.712Z,35.38
2023-01-21T08:10:39.741Z,35.90
2023-01-21T08:13:14.047Z,34.92
2023-01-21T08:15:51.765Z,35.75
2023-01-21T08:18:34.660Z,34.53
2023-01-21T08:21:21.129Z,34.50
2023-01-21T08:23:57.027Z,35.75
2023-01-21T08:26:29.031Z,38.08
2023-01-21T08:28:58.927Z,37.20
2023-01-21T08:31:28.825Z,34.97
2023-01-21T08:34:00.005Z,37.08
2023-01-21T08:36:30.732Z,35.75
2023-01-21T08:39:05.754Z,36.10
2023-01-21T08:41:37.150Z,37.47
2023-01-21T08:44:17.877Z,37.83
2023-01-21T08:46:55.844Z,42.25
2023-01-21T08:49:26.107Z,39.38
2023-01-21T08:52:00.042Z,54.17
2023-01-21T08:54:34.342Z,40.75
2023-01-21T08:57:06.718Z,38.08
2023-01-21T08:59:38.787Z,36.67
2023-01-21T09:02:17.034Z,42.67
2023-01-21T09:04:51.001Z,43.70
2023-01-21T09:07:19.920Z,35.50
2023-01-21T09:10:01.211Z,35.78
2023-01-21T09:12:44.806Z,40.88
2023-01-21T09:15:13.271Z,45.75
2023-01-21T09:17:51.668Z,41.92
2023-01-21T09:20:21.949Z,34.28
2023-01-21T09:22:53.332Z,46.17
2023-01-21T09:25:23.856Z,40.08
2023-01-21T09:27:54.826Z,33.28
2023-01-21T09:30:27.957Z,34.45
2023-01-21T09:33:05.318Z,34.50
2023-01-21T09:35:40.443Z,34.55
2023-01-21T09:38:34.096Z,33.20
2023-01-21T09:41:29.723Z,37.88
2023-01-21T09:44:19.779Z,33.30
2023-01-21T09:47:28.484Z,32.58
2023-01-21T09:50:17.590Z,32.38
2023-01-21T09:53:00.290Z,32.60
2023-01-21T09:56:10.537Z,37.70
2023-01-21T09:58:50.603Z,31.02
2023-01-21T10:01:38.734Z,33.05
2023-01-21T10:04:59.461Z,34.63
2023-01-21T10:07:59.851Z,39.80
2023-01-21T10:10:51.645Z,37.20
2023-01-21T10:13:52.985Z,39.47
2023-01-21T10:19:23.278Z,36.03
2023-01-21T10:22:21.813Z,33.78
2023-01-21T10:25:04.244Z,35.22
2023-01-21T10:27:40.174Z,40.50
2023-01-21T10:30:50.049Z,40.67
2023-01-21T10:33:29.225Z,36.80
2023-01-21T10:39:31.885Z,39.85
2023-01-21T10:42:35.945Z,42.05
2023-01-21T10:45:10.921Z,39.22
2023-01-21T10:48:06.092Z,36.50
2023-01-21T10:51:16.133Z,38.05
2023-01-21T10:54:26.724Z,39.20
2023-01-21T10:57:17.612Z,39.15
2023-01-21T10:59:49.104Z,38.55
2023-01-21T11:02:37.126Z,39.50
2023-01-21T11:05:12.205Z,35.17
2023-01-21T11:07:46.127Z,36.17
2023-01-21T11:10:24.002Z,38.58
2023-01-21T11:12:57.676Z,38.15
2023-01-21T11:15:34.142Z,34.25
2023-01-21T11:18:29.958Z,37.40
2023-01-21T11:21:09.185Z,34.58
2023-01-21T11:26:35.163Z,34.55
2023-01-21T11:29:22.344Z,35.33
2023-01-21T11:32:07.446Z,37.88
2023-01-21T11:34:52.003Z,34.80
2023-01-21T11:37:31.925Z,36.10
2023-01-21T11:40:15.018Z,34.22
2023-01-21T11:42:56.939Z,30.67
2023-01-21T11:45:41.630Z,33.90
2023-01-21T11:48:29.220Z,31.23
2023-01-21T11:51:11.573Z,33.25
2023-01-21T11:53:41.997Z,33.17
2023-01-21T11:56:11.939Z,33.15
2023-01-21T11:58:47.017Z,31.08
2023-01-21T12:01:26.157Z,30.27
2023-01-21T12:04:01.200Z,28.98
2023-01-21T12:06:36.996Z,28.15
2023-01-21T12:09:10.185Z,28.30
2023-01-21T12:11:42.473Z,31.67
2023-01-21T12:14:35.070Z,29.05
2023-01-21T12:17:25.163Z,33.13
2023-01-21T12:20:25.211Z,29.65
2023-01-21T12:23:14.518Z,29.55
2023-01-21T12:26:18.804Z,29.13
2023-01-21T12:29:29.139Z,27.33
2023-01-21T12:32:26.979Z,27.70
2023-01-21T12:35:15.487Z,28.35
2023-01-21T12:37:57.358Z,27.00
2023-01-21T12:40:38.533Z,26.88
2023-01-21T12:43:36.880Z,26.33
2023-01-21T12:46:31.218Z,25.48
2023-01-21T12:49:27.530Z,24.50
2023-01-21T12:52:05.314Z,30.77
2023-01-21T12:54:46.327Z,30.92
2023-01-21T12:57:39.895Z,26.80
2023-01-21T13:00:30.283Z,24.92
2023-01-21T13:03:15.343Z,29.85
2023-01-21T13:06:09.371Z,25.00
2023-01-21T13:09:04.362Z,23.17
2023-01-21T13:11:46.602Z,25.25
2023-01-21T13:14:48.237Z,23.58
2023-01-21T13:17:32.937Z,25.45
2023-01-21T13:20:19.217Z,22.65
2023-01-21T13:23:05.453Z,20.05
2023-01-21T13:26:02.287Z,23.27
2023-01-21T13:28:54.340Z,21.23
2023-01-21T13:31:42.345Z,25.45
2023-01-21T13:34:40.975Z,25.98
2023-01-21T13:37:47.581Z,24.35
2023-01-21T13:40:27.201Z,21.70
2023-01-21T13:43:25.261Z,22.52
2023-01-21T13:46:12.461Z,23.67
2023-01-21T13:49:18.856Z,22.85
2023-01-21T13:52:24.229Z,22.50
2023-01-21T13:55:17.378Z,22.27
2023-01-21T13:57:57.705Z,21.00
2023-01-21T14:00:35.601Z,26.30
2023-01-21T14:03:55.734Z,23.42
2023-01-21T14:06:29.131Z,28.50
2023-01-21T14:09:09.563Z,29.10
2023-01-21T14:11:52.119Z,24.50
2023-01-21T14:14:48.881Z,23.98
2023-01-21T14:17:58.298Z,23.88
2023-01-21T14:20:29.808Z,21.90
2023-01-21T14:23:06.517Z,22.77
2023-01-21T14:26:06.617Z,24.65
2023-01-21T14:29:00.832Z,23.92
2023-01-21T14:31:44.699Z,22.15
2023-01-21T14:34:29.090Z,20.50
2023-01-21T14:37:23.497Z,20.00
2023-01-21T14:40:11.288Z,23.05
2023-01-21T14:42:56.034Z,23.08
2023-01-21T14:45:56.901Z,22.33
2023-01-21T14:48:42.559Z,23.75
2023-01-21T14:51:27.262Z,22.00
2023-01-21T14:54:16.649Z,24.38
2023-01-21T14:57:18.106Z,22.67
2023-01-21T14:59:55.909Z,30.20
2023-01-21T15:02:42.138Z,28.25
2023-01-21T15:05:37.134Z,23.20
2023-01-21T15:08:46.197Z,20.80
2023-01-21T15:11:37.120Z,19.70
2023-01-21T15:14:46.781Z,19.65
2023-01-21T15:17:48.587Z,19.08
2023-01-21T15:20:59.872Z,18.55
2023-01-21T15:23:42.272Z,18.27
2023-01-21T15:26:32.772Z,13.33
2023-01-21T15:29:26.796Z,17.67
2023-01-21T15:31:58.463Z,19.27
2023-01-21T15:34:37.112Z,17.02
2023-01-21T15:37:23.530Z,19.00
2023-01-21T15:40:05.921Z,17.85
2023-01-21T15:43:00.488Z,18.73
2023-01-21T15:45:35.814Z,19.08
2023-01-21T15:48:19.942Z,21.13
2023-01-21T15:51:27.112Z,21.20
2023-01-21T15:54:30.411Z,19.90
2023-01-21T15:57:39.088Z,21.23
2023-01-21T16:00:54.427Z,21.42
2023-01-21T16:04:17.708Z,17.92
2023-01-21T16:07:11.083Z,17.13
2023-01-21T16:09:54.601Z,24.02
2023-01-21T16:12:36.266Z,25.15
2023-01-21T16:15:21.641Z,21.65
2023-01-21T16:18:17.144Z,17.48
2023-01-21T16:20:54.967Z,17.77
2023-01-21T16:23:26.917Z,20.33
2023-01-21T16:25:59.232Z,21.38
2023-01-21T16:28:50.646Z,19.93
2023-01-21T16:31:19.757Z,22.77
2023-01-21T16:33:55.862Z,16.67
2023-01-21T16:36:27.047Z,21.23
2023-01-21T16:39:07.784Z,21.65
2023-01-21T16:41:40.750Z,18.42
2023-01-21T16:44:19.695Z,24.05
2023-01-21T16:46:51.136Z,23.80
2023-01-21T16:49:21.414Z,29.27
2023-01-21T16:52:00.847Z,20.85
2023-01-21T16:54:34.500Z,24.05
2023-01-21T16:57:28.493Z,38.50
2023-01-21T17:00:03.231Z,39.42
2023-01-21T17:02:37.841Z,27.52
2023-01-21T17:05:08.805Z,26.35
2023-01-21T17:07:50.335Z,37.67
2023-01-21T17:10:39.602Z,43.38
2023-01-21T17:13:16.210Z,33.45
2023-01-21T17:16:01.044Z,30.65
